createdAt,value
2022-12-03T00:06:55.236Z,12.45
2022-12-03T00:12:14.395Z,12.45
2022-12-03T00:17:34.120Z,12.44
2022-12-03T00:22:53.842Z,12.45
2022-12-03T00:28:13.317Z,12.44
2022-12-03T00:33:32.751Z,12.45
2022-12-03T00:39:00.726Z,12.44
2022-12-03T00:44:11.030Z,12.45
2022-12-03T00:49:30.274Z,12.44
2022-12-03T00:54:49.358Z,12.45
2022-12-03T01:00:16.035Z,12.45
2022-12-03T01:05:27.275Z,12.44
2022-12-03T01:10:46.695Z,12.44
2022-12-03T01:16:06.674Z,12.44
2022-12-03T01:21:26.399Z,12.44
2022-12-03T01:32:04.151Z,12.44
2022-12-03T01:42:42.452Z,12.44
2022-12-03T01:48:01.938Z,12.44
2022-12-03T01:53:21.524Z,12.44
2022-12-03T01:58:40.376Z,12.44
2022-12-03T02:03:59.471Z,12.43
2022-12-03T02:09:18.868Z,12.44
2022-12-03T02:14:37.633Z,12.44
2022-12-03T02:25:16.713Z,12.44
2022-12-03T02:30:35.790Z,12.44
2022-12-03T02:35:59.148Z,12.44
2022-12-03T02:41:14.630Z,12.44
2022-12-03T02:51:52.927Z,12.44
2022-12-03T02:57:12.274Z,12.44
2022-12-03T03:02:31.491Z,12.44
2022-12-03T03:07:50.605Z,12.44
2022-12-03T03:13:10.318Z,12.44
2022-12-03T03:18:29.537Z,12.44
2022-12-03T03:23:48.967Z,12.43
2022-12-03T03:29:08.595Z,12.44
2022-12-03T03:34:27.774Z,12.44
2022-12-03T03:39:47.526Z,12.44
2022-12-03T03:45:06.345Z,12.44
2022-12-03T03:50:26.132Z,12.43
2022-12-03T03:55:45.126Z,12.44
2022-12-03T04:01:04.176Z,12.44
2022-12-03T04:06:22.900Z,12.44
2022-12-03T04:11:41.742Z,12.44
2022-12-03T04:17:01.568Z,12.44
2022-12-03T04:22:30.422Z,12.44
2022-12-03T04:32:59.854Z,12.43
2022-12-03T04:38:19.583Z,12.44
2022-12-03T04:43:39.382Z,12.44
2022-12-03T04:48:58.405Z,12.43
2022-12-03T04:54:17.526Z,12.44
2022-12-03T04:59:37.049Z,12.44
2022-12-03T05:04:56.081Z,12.43
2022-12-03T05:10:15.118Z,12.44
2022-12-03T05:15:45.051Z,12.44
2022-12-03T05:20:53.952Z,12.43
2022-12-03T05:26:22.164Z,12.44
2022-12-03T05:31:32.259Z,12.43
2022-12-03T05:36:51.567Z,12.43
2022-12-03T05:42:10.931Z,12.43
2022-12-03T05:47:30.903Z,12.43
2022-12-03T05:52:50.171Z,12.43
2022-12-03T05:58:10.103Z,12.43
2022-12-03T06:03:29.321Z,12.44
2022-12-03T06:14:08.008Z,12.42
2022-12-03T06:19:27.284Z,12.43
2022-12-03T06:24:46.340Z,12.43
2022-12-03T06:30:05.586Z,12.43
2022-12-03T06:35:33.325Z,12.43
2022-12-03T06:40:53.970Z,12.42
2022-12-03T06:46:04.465Z,12.42
2022-12-03T06:56:45.291Z,12.43
2022-12-03T07:02:01.618Z,12.43
2022-12-03T07:07:20.721Z,12.43
2022-12-03T07:12:40.606Z,12.42
2022-12-03T07:17:59.465Z,12.43
2022-12-03T07:23:18.727Z,12.42
2022-12-03T07:28:37.987Z,12.43
2022-12-03T07:39:16.211Z,12.42
2022-12-03T07:44:36.026Z,12.42
2022-12-03T07:49:55.708Z,12.44
2022-12-03T07:55:14.485Z,12.43
2022-12-03T08:00:33.348Z,12.43
2022-12-03T08:06:00.835Z,12.44
2022-12-03T08:11:20.973Z,12.44
2022-12-03T08:16:31.824Z,12.45
2022-12-03T08:21:53.097Z,12.46
2022-12-03T08:27:10.334Z,12.47
2022-12-03T08:32:29.980Z,12.49
2022-12-03T08:37:48.873Z,12.51
2022-12-03T08:43:08.812Z,12.5
2022-12-03T08:48:28.503Z,12.5
2022-12-03T08:59:07.408Z,12.52
2022-12-03T09:04:27.128Z,12.53
2022-12-03T09:09:45.917Z,12.55
2022-12-03T09:15:05.595Z,12.58
2022-12-03T09:20:33.429Z,12.59
2022-12-03T09:25:43.383Z,12.6
2022-12-03T09:31:10.868Z,12.62
2022-12-03T09:41:41.010Z,12.65
2022-12-03T09:47:00.526Z,12.69
2022-12-03T09:52:20.038Z,12.74
2022-12-03T09:57:39.504Z,12.74
2022-12-03T10:02:58.558Z,12.75
2022-12-03T10:08:17.667Z,12.76
2022-12-03T10:13:37.416Z,12.77
2022-12-03T10:18:57.151Z,12.78
2022-12-03T10:24:16.538Z,12.77
2022-12-03T10:29:35.524Z,12.76
2022-12-03T10:34:55.102Z,12.78
2022-12-03T10:40:14.019Z,12.79
2022-12-03T10:45:32.932Z,12.78
2022-12-03T10:50:52.098Z,12.8
2022-12-03T10:56:44.104Z,12.8
2022-12-03T11:02:03.536Z,12.85
2022-12-03T11:07:22.770Z,12.93
2022-12-03T11:12:42.500Z,12.99
2022-12-03T11:18:02.201Z,12.98
2022-12-03T11:23:21.620Z,12.95
2022-12-03T11:28:41.165Z,12.93
2022-12-03T11:34:00.076Z,12.9
2022-12-03T11:39:19.085Z,12.92
2022-12-03T11:44:38.880Z,12.9
2022-12-03T11:49:58.158Z,12.86
2022-12-03T11:55:17.800Z,12.82
2022-12-03T12:00:37.572Z,12.78
2022-12-03T12:05:56.583Z,12.74
2022-12-03T12:11:14.474Z,12.72
2022-12-03T12:16:33.646Z,12.69
2022-12-03T12:21:52.964Z,12.66
2022-12-03T12:27:11.979Z,12.66
2022-12-03T12:32:31.578Z,12.64
2022-12-03T12:37:56.763Z,12.63
2022-12-03T12:43:14.341Z,12.62
2022-12-03T12:53:48.983Z,12.61
2022-12-03T12:59:09.470Z,12.58
2022-12-03T13:04:28.489Z,12.59
2022-12-03T13:09:48.166Z,12.59
2022-12-03T13:15:07.250Z,12.57
2022-12-03T13:20:26.550Z,12.56
2022-12-03T13:26:03.982Z,12.56
2022-12-03T13:36:24.183Z,12.53
2022-12-03T13:41:43.482Z,12.53
2022-12-03T13:47:02.441Z,12.52
2022-12-03T13:52:22.351Z,12.52
2022-12-03T13:57:41.677Z,12.51
2022-12-03T14:03:00.794Z,12.5
2022-12-03T14:08:19.925Z,12.49
2022-12-03T14:13:38.959Z,12.48
2022-12-03T14:18:57.766Z,12.46
2022-12-03T14:24:17.530Z,12.46
2022-12-03T14:29:37.076Z,12.46
2022-12-03T14:34:55.875Z,12.45
2022-12-03T14:40:19.716Z,12.45
2022-12-03T14:45:34.125Z,12.44
2022-12-03T14:50:53.643Z,12.44
2022-12-03T15:01:39.262Z,12.44
2022-12-03T15:06:50.599Z,12.44
2022-12-03T15:12:10.186Z,12.44
2022-12-03T15:17:31.872Z,12.44
2022-12-03T15:22:48.493Z,12.43
2022-12-03T15:28:08.041Z,12.44
2022-12-03T15:33:27.101Z,12.43
2022-12-03T15:38:46.094Z,12.44
2022-12-03T15:44:05.644Z,12.43
2022-12-03T15:49:25.439Z,12.43
2022-12-03T15:54:44.474Z,12.43
2022-12-03T16:05:22.682Z,12.43
2022-12-03T16:10:42.093Z,12.43
2022-12-03T16:21:26.354Z,12.43
2022-12-03T16:26:41.065Z,12.43
2022-12-03T16:32:00.181Z,12.42
2022-12-03T16:37:19.982Z,12.43
2022-12-03T16:42:39.556Z,12.42
2022-12-03T16:47:58.389Z,12.42
2022-12-03T16:53:17.413Z,12.42
2022-12-03T16:58:37.009Z,12.42
2022-12-03T17:03:56.420Z,12.42
2022-12-03T17:09:15.330Z,12.42
2022-12-03T17:19:53.639Z,12.42
2022-12-03T17:25:12.769Z,12.42
2022-12-03T17:30:32.571Z,12.42
2022-12-03T17:35:51.912Z,12.42
2022-12-03T17:41:11.239Z,12.42
2022-12-03T17:46:38.226Z,12.42
2022-12-03T17:51:49.930Z,12.42
2022-12-03T17:57:17.664Z,12.41
2022-12-03T18:02:28.286Z,12.41
2022-12-03T18:07:48.125Z,12.42
2022-12-03T18:13:07.136Z,12.42
2022-12-03T18:18:26.337Z,12.41
2022-12-03T18:23:45.091Z,12.41
2022-12-03T18:29:04.233Z,12.41
2022-12-03T18:34:23.734Z,12.41
2022-12-03T18:45:10.764Z,12.41
2022-12-03T18:50:21.603Z,12.41
2022-12-03T19:01:00.857Z,12.41
2022-12-03T19:06:20.565Z,12.41
2022-12-03T19:11:39.447Z,12.41
2022-12-03T19:16:59.048Z,12.4
2022-12-03T19:22:18.388Z,12.41
2022-12-03T19:27:37.933Z,12.41
2022-12-03T19:32:57.455Z,12.41
2022-12-03T19:38:16.019Z,12.4
2022-12-03T19:43:35.433Z,12.41
2022-12-03T19:54:14.166Z,12.41
2022-12-03T19:59:41.142Z,12.41
2022-12-03T20:04:52.182Z,12.4
2022-12-03T20:10:11.780Z,12.4
2022-12-03T20:15:30.535Z,12.41
2022-12-03T20:20:49.568Z,12.41
2022-12-03T20:26:09.113Z,12.41
2022-12-03T20:31:28.113Z,12.4
2022-12-03T20:36:47.730Z,12.41
2022-12-03T20:42:07.472Z,12.4
2022-12-03T20:47:35.401Z,12.4
2022-12-03T20:53:03.533Z,12.4
2022-12-03T20:58:04.214Z,12.4
2022-12-03T21:03:23.501Z,12.4
2022-12-03T21:08:42.739Z,12.4
2022-12-03T21:14:11.043Z,12.4
2022-12-03T21:19:21.269Z,12.4
2022-12-03T21:24:40.190Z,12.4
2022-12-03T21:35:19.351Z,12.4
2022-12-03T21:40:38.151Z,12.39
2022-12-03T21:45:57.428Z,12.4
2022-12-03T21:51:16.285Z,12.4
2022-12-03T21:56:35.427Z,12.4
2022-12-03T22:01:54.447Z,12.4
2022-12-03T22:07:14.164Z,12.39
2022-12-03T22:12:33.666Z,12.4
2022-12-03T22:17:53.074Z,12.4
2022-12-03T22:23:12.455Z,12.4
2022-12-03T22:28:31.581Z,12.4
2022-12-03T22:33:50.514Z,12.4
2022-12-03T22:39:10.296Z,12.39
2022-12-03T22:44:29.447Z,12.39
2022-12-03T22:49:48.578Z,12.4
2022-12-03T22:55:07.682Z,12.39
2022-12-03T23:00:27.285Z,12.39
2022-12-03T23:05:46.866Z,12.39
2022-12-03T23:11:06.729Z,12.39
2022-12-03T23:16:26.912Z,12.4
2022-12-03T23:21:46.064Z,12.39
2022-12-03T23:27:04.800Z,12.39
2022-12-03T23:32:24.541Z,12.39
2022-12-03T23:37:43.415Z,12.39
2022-12-03T23:43:02.441Z,12.39
2022-12-03T23:53:41.561Z,12.39
2022-12-03T23:59:00.921Z,12.39
